createdAt,value
2022-08-05T00:03:00.536Z,2.72
2022-08-05T00:08:05.593Z,2.88
2022-08-05T00:13:38.715Z,3.22
2022-08-05T00:18:50.406Z,3.60
2022-08-05T00:24:10.120Z,3.00
2022-08-05T00:29:15.559Z,2.92
2022-08-05T00:34:55.263Z,2.53
2022-08-05T00:39:57.829Z,2.80
2022-08-05T00:45:05.146Z,3.38
2022-08-05T00:50:15.747Z,2.92
2022-08-05T00:55:22.440Z,3.30
2022-08-05T01:00:27.706Z,2.72
2022-08-05T01:05:33.664Z,2.43
2022-08-05T01:10:55.511Z,2.92
2022-08-05T01:16:09.460Z,2.70
2022-08-05T01:21:59.867Z,2.40
2022-08-05T01:27:24.363Z,2.80
2022-08-05T01:32:38.308Z,3.67
2022-08-05T01:37:50.731Z,3.00
2022-08-05T01:43:02.118Z,3.25
2022-08-05T01:48:11.509Z,3.15
2022-08-05T01:53:57.823Z,4.00
2022-08-05T01:58:46.071Z,3.40
2022-08-05T02:03:58.771Z,3.88
2022-08-05T02:09:03.601Z,3.30
2022-08-05T02:14:17.053Z,3.10
2022-08-05T02:19:34.664Z,3.50
2022-08-05T02:24:47.963Z,3.17
2022-08-05T02:30:00.721Z,3.25
2022-08-05T02:35:14.474Z,3.22
2022-08-05T02:40:27.569Z,3.33
2022-08-05T02:45:52.706Z,3.42
2022-08-05T02:51:01.021Z,3.10
2022-08-05T02:56:08.225Z,4.10
2022-08-05T03:01:19.452Z,3.70
2022-08-05T03:06:53.703Z,3.60
2022-08-05T03:11:54.487Z,4.18
2022-08-05T03:17:06.135Z,4.50
2022-08-05T03:22:16.482Z,3.50
2022-08-05T03:27:23.765Z,4.40
2022-08-05T03:32:44.868Z,3.83
2022-08-05T03:37:51.472Z,4.60
2022-08-05T03:42:57.800Z,4.43
2022-08-05T03:48:02.489Z,4.00
2022-08-05T03:56:00.722Z,4.53
2022-08-05T03:58:43.647Z,4.60
2022-08-05T04:04:05.360Z,4.37
2022-08-05T04:09:25.936Z,6.30
2022-08-05T04:14:32.922Z,4.60
2022-08-05T04:19:44.338Z,4.22
2022-08-05T04:24:53.000Z,4.55
2022-08-05T04:29:57.385Z,3.95
2022-08-05T04:35:17.618Z,4.45
2022-08-05T04:40:25.589Z,4.55
2022-08-05T04:45:48.351Z,3.40
2022-08-05T04:51:01.649Z,4.80
2022-08-05T04:56:32.699Z,3.87
2022-08-05T05:02:07.373Z,3.45
2022-08-05T05:06:59.202Z,4.38
2022-08-05T05:12:06.398Z,4.75
2022-08-05T05:17:11.884Z,4.20
2022-08-05T05:22:24.706Z,3.80
2022-08-05T05:27:41.809Z,3.77
2022-08-05T05:32:52.770Z,3.53
2022-08-05T05:38:01.886Z,3.47
2022-08-05T05:43:08.588Z,3.30
2022-08-05T05:48:16.182Z,3.22
2022-08-05T05:53:22.090Z,3.53
2022-08-05T05:58:31.514Z,3.20
2022-08-05T06:03:54.202Z,3.60
2022-08-05T06:09:03.963Z,3.30
2022-08-05T06:14:09.796Z,3.70
2022-08-05T06:19:14.620Z,3.77
2022-08-05T06:24:48.354Z,3.73
2022-08-05T06:30:02.652Z,3.50
2022-08-05T06:35:21.672Z,3.43
2022-08-05T06:40:27.859Z,3.30
2022-08-05T06:46:03.008Z,3.40
2022-08-05T06:50:58.705Z,3.00
2022-08-05T06:56:05.512Z,2.60
2022-08-05T07:01:32.712Z,2.65
2022-08-05T07:06:37.646Z,2.67
2022-08-05T07:11:43.768Z,2.50
2022-08-05T07:18:01.975Z,2.67
2022-08-05T07:22:28.438Z,2.57
2022-08-05T07:27:58.150Z,2.72
2022-08-05T07:33:00.246Z,2.33
2022-08-05T07:38:04.814Z,2.20
2022-08-05T07:43:20.520Z,2.10
2022-08-05T07:49:03.591Z,2.13
2022-08-05T07:53:52.528Z,2.60
2022-08-05T07:58:59.368Z,1.90
2022-08-05T08:04:05.496Z,2.40
2022-08-05T08:09:12.454Z,2.30
2022-08-05T08:14:20.448Z,2.33
2022-08-05T08:20:10.080Z,1.80
2022-08-05T08:24:53.787Z,2.20
2022-08-05T08:30:29.858Z,2.47
2022-08-05T08:35:40.898Z,2.63
2022-08-05T08:40:51.766Z,2.20
2022-08-05T08:45:59.035Z,2.85
2022-08-05T08:51:54.622Z,2.60
2022-08-05T08:56:33.465Z,2.45
2022-08-05T09:01:42.625Z,2.53
2022-08-05T09:06:49.893Z,2.65
2022-08-05T09:12:00.203Z,2.73
2022-08-05T09:17:39.876Z,2.63
2022-08-05T09:23:37.505Z,2.20
2022-08-05T09:28:50.257Z,2.58
2022-08-05T09:33:58.540Z,2.08
2022-08-05T09:39:18.037Z,2.45
2022-08-05T09:44:46.015Z,2.17
2022-08-05T09:50:02.073Z,2.30
2022-08-05T09:55:56.199Z,2.30
2022-08-05T10:00:56.816Z,2.20
2022-08-05T10:06:14.590Z,2.58
2022-08-05T10:11:21.546Z,2.07
2022-08-05T10:16:33.956Z,1.80
2022-08-05T10:21:40.368Z,2.58
2022-08-05T10:26:52.803Z,2.50
2022-08-05T10:32:52.801Z,2.20
2022-08-05T10:37:23.528Z,2.03
2022-08-05T10:42:53.343Z,1.75
2022-08-05T10:48:31.962Z,1.80
2022-08-05T10:53:42.541Z,2.00
2022-08-05T10:59:12.465Z,2.03
2022-08-05T11:04:32.043Z,2.13
2022-08-05T11:09:48.626Z,2.08
2022-08-05T11:15:19.630Z,2.42
2022-08-05T11:20:45.228Z,2.40
2022-08-05T11:26:09.157Z,3.00
2022-08-05T11:31:57.638Z,3.25
2022-08-05T11:36:57.159Z,2.80
2022-08-05T11:42:04.744Z,2.37
2022-08-05T11:47:48.271Z,2.60
2022-08-05T11:52:36.266Z,2.50
2022-08-05T11:58:08.238Z,2.45
2022-08-05T12:03:28.930Z,2.00
2022-08-05T12:08:51.012Z,1.92
2022-08-05T12:13:59.395Z,2.00
2022-08-05T12:19:08.182Z,2.00
2022-08-05T12:24:17.190Z,1.83
2022-08-05T12:29:24.220Z,1.70
2022-08-05T12:34:33.577Z,1.53
2022-08-05T12:39:40.822Z,2.20
2022-08-05T12:44:48.158Z,2.00
2022-08-05T12:50:03.140Z,2.10
2022-08-05T12:58:48.495Z,2.10
2022-08-05T13:03:26.508Z,2.05
2022-08-05T13:08:40.204Z,2.53
2022-08-05T13:14:05.545Z,2.20
2022-08-05T13:19:14.567Z,2.17
2022-08-05T13:24:36.501Z,2.00
2022-08-05T13:29:59.587Z,1.75
2022-08-05T13:35:11.888Z,2.25
2022-08-05T13:40:35.729Z,1.95
2022-08-05T13:45:44.952Z,2.03
2022-08-05T13:50:51.796Z,2.30
2022-08-05T13:56:01.922Z,2.00
2022-08-05T14:01:09.013Z,2.08
2022-08-05T14:06:25.650Z,2.03
2022-08-05T14:11:32.655Z,1.85
2022-08-05T14:17:01.879Z,2.25
2022-08-05T14:22:11.469Z,2.07
2022-08-05T14:27:18.350Z,2.23
2022-08-05T14:32:26.873Z,2.33
2022-08-05T14:37:45.475Z,2.17
2022-08-05T14:42:53.873Z,1.95
2022-08-05T14:48:05.248Z,2.08
2022-08-05T14:53:13.552Z,2.50
2022-08-05T14:58:18.038Z,2.40
2022-08-05T15:03:25.141Z,2.20
2022-08-05T15:08:57.749Z,2.17
2022-08-05T15:13:54.016Z,2.40
2022-08-05T15:19:02.314Z,2.70
2022-08-05T15:24:08.804Z,2.80
2022-08-05T15:29:13.760Z,2.92
2022-08-05T15:34:32.195Z,2.70
2022-08-05T15:40:59.877Z,3.08
2022-08-05T15:45:02.305Z,2.70
2022-08-05T15:50:15.174Z,2.50
2022-08-05T15:55:24.643Z,2.40
2022-08-05T16:00:48.356Z,2.90
2022-08-05T16:06:11.415Z,2.70
2022-08-05T16:11:16.257Z,2.87
2022-08-05T16:16:25.326Z,3.00
2022-08-05T16:22:00.425Z,2.80
2022-08-05T16:26:59.025Z,2.72
2022-08-05T16:32:03.637Z,2.90
2022-08-05T16:38:16.109Z,2.77
2022-08-05T16:42:36.994Z,2.67
2022-08-05T16:47:48.306Z,3.20
2022-08-05T16:53:00.358Z,3.10
2022-08-05T16:58:19.824Z,3.50
2022-08-05T17:03:24.426Z,3.50
2022-08-05T17:08:36.734Z,3.40
2022-08-05T17:14:05.330Z,3.50
2022-08-05T17:19:10.787Z,3.60
2022-08-05T17:24:30.123Z,3.60
2022-08-05T17:29:41.812Z,3.50
2022-08-05T17:34:48.127Z,3.15
2022-08-05T17:39:55.228Z,3.35
2022-08-05T17:45:17.903Z,3.75
2022-08-05T17:50:29.005Z,3.33
2022-08-05T17:55:39.700Z,3.33
2022-08-05T18:00:50.692Z,3.15
2022-08-05T18:05:55.664Z,3.53
2022-08-05T18:11:08.045Z,3.70
2022-08-05T18:16:15.788Z,3.25
2022-08-05T18:21:26.301Z,3.63
2022-08-05T18:26:34.097Z,3.35
2022-08-05T18:31:43.168Z,3.23
2022-08-05T18:36:47.658Z,3.10
2022-08-05T18:42:02.206Z,3.27
2022-08-05T18:47:12.062Z,3.20
2022-08-05T18:52:37.142Z,3.58
2022-08-05T18:57:52.991Z,2.90
2022-08-05T19:03:04.289Z,2.97
2022-08-05T19:08:13.638Z,3.30
2022-08-05T19:13:21.722Z,2.60
2022-08-05T19:18:27.584Z,2.78
2022-08-05T19:24:05.772Z,3.00
2022-08-05T19:28:58.230Z,2.20
2022-08-05T19:34:03.001Z,2.22
2022-08-05T19:39:09.171Z,2.20
2022-08-05T19:44:16.098Z,2.30
2022-08-05T19:49:20.595Z,1.80
2022-08-05T19:54:31.164Z,2.00
2022-08-05T19:59:56.514Z,2.15
2022-08-05T20:05:05.022Z,2.03
2022-08-05T20:10:14.455Z,2.10
2022-08-05T20:15:48.211Z,2.05
2022-08-05T20:20:47.649Z,1.90
2022-08-05T20:25:54.693Z,1.90
2022-08-05T20:31:01.538Z,2.08
2022-08-05T20:36:06.587Z,1.83
2022-08-05T20:41:23.694Z,2.10
2022-08-05T20:46:33.474Z,2.28
2022-08-05T20:51:38.259Z,1.88
2022-08-05T20:56:42.865Z,2.28
2022-08-05T21:01:51.662Z,2.22
2022-08-05T21:06:56.747Z,2.23
2022-08-05T21:12:09.901Z,2.28
2022-08-05T21:17:17.839Z,3.00
2022-08-05T21:22:26.210Z,3.30
2022-08-05T21:27:38.543Z,2.58
2022-08-05T21:32:45.087Z,3.00
2022-08-05T21:37:53.259Z,4.07
2022-08-05T21:42:59.036Z,5.37
2022-08-05T21:48:06.598Z,6.30
2022-08-05T21:53:16.795Z,5.90
2022-08-05T21:58:24.856Z,6.83
2022-08-05T22:03:51.872Z,6.60
2022-08-05T22:08:57.787Z,7.47
2022-08-05T22:14:33.644Z,8.02
2022-08-05T22:20:00.270Z,8.67
2022-08-05T22:25:21.277Z,7.95
2022-08-05T22:30:35.883Z,7.90
2022-08-05T22:35:48.575Z,8.40
2022-08-05T22:40:55.156Z,9.10
2022-08-05T22:45:59.769Z,8.30
2022-08-05T22:51:07.110Z,9.13
2022-08-05T22:56:11.967Z,8.98
2022-08-05T23:01:17.513Z,9.07
2022-08-05T23:06:26.498Z,8.02
2022-08-05T23:11:31.278Z,8.93
2022-08-05T23:17:02.339Z,8.17
2022-08-05T23:22:08.145Z,7.60
2022-08-05T23:27:12.626Z,6.65
2022-08-05T23:32:22.700Z,6.15
2022-08-05T23:37:36.511Z,5.95
2022-08-05T23:42:41.213Z,5.73
2022-08-05T23:47:52.046Z,5.40
2022-08-05T23:53:00.769Z,4.85
2022-08-05T23:58:05.264Z,5.10
